Time;durP1;ratioP1;P1;durP2;ratioP2;P2;SDS_P1;SDS_P2;PMS_P1;PMS_P2;Temp;Humidity;BMP_temperature;BMP_pressure;BME280_temperature;BME280_humidity;BME280_pressure;Samples;Min_cycle;Max_cycle;Signal;HPM_P1;HPM_P2
2021/07/07 00:01:09;;;;;;;7.90;5.32;;;;;;;;;;5110073;27;20925;-69
2021/07/07 00:03:35;;;;;;;9.98;5.65;;;;;;;;;;5110616;28;20024;-71
2021/07/07 00:06:02;;;;;;;8.50;4.72;;;;;;;;;;5110503;28;20054;-71
2021/07/07 00:08:28;;;;;;;7.95;5.18;;;;;;;;;;5110003;28;20439;-71
2021/07/07 00:12:17;;;;;;;9.20;5.40;;;;;;;;;;5110467;27;20393;-70
2021/07/07 00:14:44;;;;;;;13.55;5.53;;;;;;;;;;5110410;28;20028;-70
2021/07/07 00:17:10;;;;;;;7.80;5.22;;;;;;;;;;5109938;28;20572;-70
2021/07/07 00:20:11;;;;;;;7.53;4.25;;;;;;;;;;5070108;28;20419;-69
2021/07/07 00:26:02;;;;;;;6.63;4.10;;;;;;;;;;5110607;27;20501;-70
2021/07/07 00:28:28;;;;;;;9.88;4.65;;;;;;;;;;5109082;28;20020;-72
2021/07/07 00:30:55;;;;;;;8.85;5.55;;;;;;;;;;5110014;28;20024;-70
2021/07/07 00:33:22;;;;;;;9.68;5.22;;;;;;;;;;5110397;28;20015;-69
2021/07/07 00:35:48;;;;;;;9.68;5.65;;;;;;;;;;5110341;28;20093;-70
2021/07/07 00:38:14;;;;;;;7.45;5.10;;;;;;;;;;5109815;28;20028;-69
2021/07/07 00:40:41;;;;;;;7.22;4.70;;;;;;;;;;5110376;28;20016;-70
2021/07/07 00:43:07;;;;;;;8.35;5.32;;;;;;;;;;5110353;28;20479;-70
2021/07/07 00:45:34;;;;;;;8.88;4.93;;;;;;;;;;5109676;28;20483;-70
2021/07/07 00:48:00;;;;;;;10.27;5.85;;;;;;;;;;5110203;28;20490;-70
2021/07/07 00:50:26;;;;;;;8.43;4.85;;;;;;;;;;5109580;28;20035;-71
2021/07/07 00:52:55;;;;;;;8.63;5.70;;;;;;;;;;5110081;28;20418;-71
2021/07/07 00:56:46;;;;;;;7.72;5.13;;;;;;;;;;5110595;27;20392;-71
2021/07/07 00:59:14;;;;;;;8.70;5.75;;;;;;;;;;5110141;28;20020;-71
2021/07/07 01:03:16;;;;;;;8.93;5.60;;;;;;;;;;5110762;27;20393;-70
2021/07/07 01:05:42;;;;;;;9.05;4.85;;;;;;;;;;5110065;28;20027;-70
2021/07/07 01:10:19;;;;;;;10.20;6.10;;;;;;;;;;5110421;27;20462;-70
2021/07/07 01:12:46;;;;;;;9.20;5.38;;;;;;;;;;5110025;28;20364;-70
2021/07/07 01:15:17;;;;;;;7.80;5.85;;;;;;;;;;5110399;28;20031;-70
2021/07/07 01:19:22;;;;;;;7.68;5.43;;;;;;;;;;5110039;27;20771;-69
2021/07/07 01:21:49;;;;;;;7.93;5.20;;;;;;;;;;5110625;28;20430;-69
2021/07/07 01:24:16;;;;;;;8.85;5.53;;;;;;;;;;5110538;28;20024;-69
2021/07/07 01:26:43;;;;;;;9.00;5.70;;;;;;;;;;5109970;28;20031;-69
2021/07/07 01:30:17;;;;;;;7.75;5.20;;;;;;;;;;5110471;27;20458;-68
2021/07/07 01:32:44;;;;;;;10.27;5.50;;;;;;;;;;5110035;28;20115;-69
2021/07/07 01:35:10;;;;;;;10.10;5.88;;;;;;;;;;5110429;28;20024;-69
2021/07/07 01:37:37;;;;;;;8.60;5.53;;;;;;;;;;5110620;28;20046;-72
2021/07/07 01:40:03;;;;;;;9.77;6.43;;;;;;;;;;5109950;28;20379;-70
2021/07/07 01:43:58;;;;;;;10.88;5.45;;;;;;;;;;5110729;27;20869;-69
2021/07/07 01:46:24;;;;;;;10.27;6.38;;;;;;;;;;5110534;28;20110;-68
2021/07/07 01:48:50;;;;;;;8.77;5.85;;;;;;;;;;5109949;28;20023;-69
2021/07/07 01:51:17;;;;;;;9.63;6.15;;;;;;;;;;5110384;28;20411;-69
2021/07/07 01:55:25;;;;;;;9.07;5.45;;;;;;;;;;5110011;27;20528;-68
2021/07/07 01:57:52;;;;;;;10.13;6.38;;;;;;;;;;5110506;28;20507;-68
2021/07/07 02:00:18;;;;;;;9.52;5.85;;;;;;;;;;5109296;28;20107;-69
2021/07/07 02:04:41;;;;;;;12.30;5.30;;;;;;;;;;5110539;27;20393;-69
2021/07/07 02:07:07;;;;;;;11.70;6.78;;;;;;;;;;5110422;28;20506;-70
2021/07/07 02:09:33;;;;;;;9.57;5.28;;;;;;;;;;5110011;28;20024;-70
2021/07/07 02:11:59;;;;;;;9.63;5.70;;;;;;;;;;5110331;28;20027;-70
2021/07/07 02:14:25;;;;;;;8.57;5.95;;;;;;;;;;5110315;28;20057;-70
2021/07/07 02:16:51;;;;;;;10.15;6.15;;;;;;;;;;5109867;28;20034;-69
2021/07/07 02:19:18;;;;;;;9.60;6.38;;;;;;;;;;5110504;28;20024;-70
2021/07/07 02:21:44;;;;;;;10.80;6.03;;;;;;;;;;5110239;28;20065;-69
2021/07/07 02:24:10;;;;;;;9.45;6.18;;;;;;;;;;5109932;28;20496;-69
2021/07/07 02:28:36;;;;;;;9.75;6.25;;;;;;;;;;5110497;27;20514;-69
2021/07/07 02:33:41;;;;;;;10.70;6.13;;;;;;;;;;5110435;27;20454;-68
2021/07/07 02:36:08;;;;;;;9.82;5.75;;;;;;;;;;5110073;28;20487;-68
2021/07/07 02:38:34;;;;;;;9.68;6.57;;;;;;;;;;5110766;28;20463;-69
2021/07/07 02:41:00;;;;;;;10.05;6.07;;;;;;;;;;5109315;28;20059;-69
2021/07/07 02:43:26;;;;;;;8.10;5.43;;;;;;;;;;5110042;28;20383;-69
2021/07/07 02:49:49;;;;;;;9.02;5.47;;;;;;;;;;5110553;27;20393;-69
2021/07/07 02:52:16;;;;;;;7.25;4.88;;;;;;;;;;5108768;28;20035;-69
2021/07/07 02:55:47;;;;;;;7.38;4.78;;;;;;;;;;5110484;27;20407;-69
2021/07/07 02:58:14;;;;;;;9.85;5.07;;;;;;;;;;5109977;28;20034;-69
2021/07/07 03:01:33;;;;;;;8.73;5.47;;;;;;;;;;5110728;27;20916;-69
2021/07/07 03:04:00;;;;;;;8.10;5.20;;;;;;;;;;5108833;28;20391;-68
2021/07/07 03:06:48;;;;;;;8.43;5.07;;;;;;;;;;5110448;27;20392;-69
2021/07/07 03:09:14;;;;;;;7.85;5.18;;;;;;;;;;5110487;28;20506;-69
2021/07/07 03:11:40;;;;;;;9.10;5.57;;;;;;;;;;5110036;28;20022;-68
2021/07/07 03:14:06;;;;;;;7.93;4.72;;;;;;;;;;5110456;28;20102;-68
2021/07/07 03:17:55;;;;;;;8.65;5.15;;;;;;;;;;5110431;27;20412;-68
2021/07/07 03:20:21;;;;;;;10.32;6.68;;;;;;;;;;5110249;28;20102;-68
2021/07/07 03:22:47;;;;;;;10.70;6.30;;;;;;;;;;5110575;28;20024;-68
2021/07/07 03:25:13;;;;;;;7.85;5.10;;;;;;;;;;5108760;28;20024;-68
2021/07/07 03:27:40;;;;;;;8.40;5.68;;;;;;;;;;5110305;28;20027;-68
2021/07/07 03:30:06;;;;;;;11.75;6.35;;;;;;;;;;5110203;28;20054;-69
2021/07/07 03:32:33;;;;;;;9.00;5.05;;;;;;;;;;5108525;28;20035;-68
2021/07/07 03:34:59;;;;;;;10.88;6.53;;;;;;;;;;5110152;28;20031;-68
2021/07/07 03:37:26;;;;;;;9.88;6.72;;;;;;;;;;5110419;28;20110;-68
2021/07/07 03:39:52;;;;;;;9.23;6.40;;;;;;;;;;5108429;28;20022;-68
2021/07/07 03:42:18;;;;;;;10.35;5.53;;;;;;;;;;5108922;28;20028;-68
2021/07/07 03:44:44;;;;;;;9.00;5.68;;;;;;;;;;5110193;28;20030;-70
2021/07/07 03:47:10;;;;;;;14.20;6.78;;;;;;;;;;5108287;28;20085;-68
2021/07/07 03:49:37;;;;;;;8.00;5.47;;;;;;;;;;5109792;28;20384;-69
2021/07/07 03:52:04;;;;;;;9.13;5.75;;;;;;;;;;5109943;28;20097;-70
2021/07/07 03:54:30;;;;;;;10.32;6.32;;;;;;;;;;5108123;28;20027;-69
2021/07/07 03:56:56;;;;;;;10.25;5.57;;;;;;;;;;5108415;28;20051;-70
2021/07/07 03:59:23;;;;;;;9.25;5.50;;;;;;;;;;5109766;28;20125;-70
2021/07/07 04:01:50;;;;;;;9.85;5.88;;;;;;;;;;5108158;28;20089;-69
2021/07/07 04:04:17;;;;;;;8.80;5.63;;;;;;;;;;5109860;28;20027;-69
2021/07/07 04:06:43;;;;;;;8.73;5.90;;;;;;;;;;5109631;28;20020;-71
2021/07/07 04:09:10;;;;;;;9.68;5.35;;;;;;;;;;5107885;28;20020;-69
2021/07/07 04:12:26;;;;;;;9.88;4.70;;;;;;;;;;5069825;28;20396;-69
2021/07/07 04:14:52;;;;;;;8.52;5.85;;;;;;;;;;5068275;28;20025;-70
2021/07/07 04:19:08;;;;;;;10.30;5.13;;;;;;;;;;5110530;27;20389;-70
2021/07/07 04:21:34;;;;;;;7.72;5.10;;;;;;;;;;5110166;28;20027;-69
2021/07/07 04:24:00;;;;;;;9.15;5.15;;;;;;;;;;5109304;28;20048;-70
2021/07/07 04:26:26;;;;;;;10.43;4.70;;;;;;;;;;5110444;28;20024;-70
2021/07/07 04:28:53;;;;;;;7.93;5.15;;;;;;;;;;5110102;28;20532;-70
2021/07/07 04:31:19;;;;;;;7.97;5.10;;;;;;;;;;5109066;28;20111;-70
2021/07/07 04:35:18;;;;;;;8.60;5.38;;;;;;;;;;5110566;27;20529;-70
2021/07/07 04:37:45;;;;;;;8.38;5.07;;;;;;;;;;5108762;28;20152;-70
2021/07/07 04:43:00;;;;;;;8.45;5.70;;;;;;;;;;5130915;27;20314;-70
2021/07/07 04:45:26;;;;;;;7.93;4.70;;;;;;;;;;5131141;28;20027;-70
2021/07/07 04:47:52;;;;;;;8.43;4.53;;;;;;;;;;5130940;28;20127;-70
2021/07/07 04:50:18;;;;;;;7.82;5.15;;;;;;;;;;5130860;28;20048;-69
2021/07/07 04:52:45;;;;;;;8.52;5.10;;;;;;;;;;5130825;28;20020;-70
2021/07/07 04:55:12;;;;;;;7.45;5.15;;;;;;;;;;5130856;28;20019;-70
2021/07/07 04:57:41;;;;;;;8.10;5.22;;;;;;;;;;5129109;28;20508;-71
2021/07/07 05:00:09;;;;;;;8.38;5.25;;;;;;;;;;5130651;28;20027;-69
2021/07/07 05:02:35;;;;;;;9.20;5.60;;;;;;;;;;5129501;28;20034;-70
2021/07/07 05:05:02;;;;;;;6.85;4.32;;;;;;;;;;5130206;28;20084;-70
2021/07/07 05:07:28;;;;;;;7.65;5.28;;;;;;;;;;5124531;28;20379;-67
2021/07/07 05:09:54;;;;;;;7.95;5.70;;;;;;;;;;5108713;28;20030;-67
2021/07/07 05:12:20;;;;;;;6.78;4.80;;;;;;;;;;5109356;28;20024;-66
2021/07/07 05:15:08;;;;;;;8.75;5.43;;;;;;;;;;5069864;28;20769;-66
2021/07/07 05:17:34;;;;;;;8.27;5.57;;;;;;;;;;5069867;28;20027;-67
2021/07/07 05:20:01;;;;;;;8.32;5.15;;;;;;;;;;5069375;28;20370;-65
2021/07/07 05:22:28;;;;;;;7.60;5.07;;;;;;;;;;5069945;28;20488;-66
2021/07/07 05:24:54;;;;;;;9.20;6.20;;;;;;;;;;5069496;28;20021;-67
2021/07/07 05:27:20;;;;;;;8.95;6.03;;;;;;;;;;5069637;28;20024;-68
2021/07/07 05:29:46;;;;;;;7.70;5.55;;;;;;;;;;5069738;28;20020;-67
2021/07/07 05:32:19;;;;;;;8.77;6.05;;;;;;;;;;5068021;28;20477;-68
2021/07/07 05:34:46;;;;;;;12.02;6.32;;;;;;;;;;5068250;28;20079;-69
2021/07/07 05:37:12;;;;;;;9.57;6.72;;;;;;;;;;5069621;28;20017;-69
2021/07/07 05:39:38;;;;;;;11.35;6.20;;;;;;;;;;5069157;28;20040;-69
2021/07/07 05:42:04;;;;;;;9.10;6.07;;;;;;;;;;5069554;28;20028;-69
2021/07/07 05:44:30;;;;;;;7.38;5.63;;;;;;;;;;5069538;28;20028;-67
2021/07/07 05:46:57;;;;;;;8.82;5.30;;;;;;;;;;5059909;28;20117;-67
2021/07/07 05:49:23;;;;;;;9.43;6.28;;;;;;;;;;5067892;28;20077;-70
2021/07/07 05:51:53;;;;;;;11.70;6.13;;;;;;;;;;5068194;28;20091;-66
2021/07/07 05:54:19;;;;;;;7.38;5.10;;;;;;;;;;5059337;28;20025;-69
2021/07/07 05:56:45;;;;;;;8.02;5.40;;;;;;;;;;5066387;28;20384;-69
2021/07/07 05:59:11;;;;;;;10.63;5.55;;;;;;;;;;5067042;28;20029;-69
2021/07/07 06:01:38;;;;;;;8.60;5.85;;;;;;;;;;5066387;28;20024;-68
2021/07/07 06:04:04;;;;;;;10.50;5.60;;;;;;;;;;5066469;28;20055;-69
2021/07/07 06:08:45;;;;;;;9.18;5.40;;;;;;;;;;5108069;27;20400;-66
2021/07/07 06:11:11;;;;;;;7.95;5.57;;;;;;;;;;5108352;28;20028;-67
2021/07/07 06:13:38;;;;;;;6.85;4.82;;;;;;;;;;5107265;28;20023;-68
2021/07/07 06:16:04;;;;;;;8.05;5.00;;;;;;;;;;5108753;28;20111;-67
2021/07/07 06:18:32;;;;;;;10.35;4.95;;;;;;;;;;5108089;28;20026;-68
2021/07/07 06:20:58;;;;;;;10.73;5.60;;;;;;;;;;5107708;28;20077;-67
2021/07/07 06:23:24;;;;;;;6.97;4.88;;;;;;;;;;5107568;28;20388;-67
2021/07/07 06:25:50;;;;;;;7.00;5.22;;;;;;;;;;5107881;28;20031;-69
2021/07/07 06:28:17;;;;;;;7.07;4.38;;;;;;;;;;5107396;28;20038;-70
2021/07/07 06:30:43;;;;;;;7.38;4.95;;;;;;;;;;5109253;28;20015;-68
2021/07/07 06:33:11;;;;;;;8.27;4.95;;;;;;;;;;5108035;28;20111;-70
2021/07/07 06:35:37;;;;;;;8.95;5.68;;;;;;;;;;5108849;28;20020;-68
2021/07/07 06:38:04;;;;;;;7.43;5.25;;;;;;;;;;5109710;28;20016;-69
2021/07/07 06:40:30;;;;;;;7.28;5.38;;;;;;;;;;5109768;28;20055;-69
2021/07/07 06:42:57;;;;;;;11.10;5.85;;;;;;;;;;5109597;28;20051;-69
2021/07/07 06:45:25;;;;;;;8.10;5.15;;;;;;;;;;5109817;28;20523;-68
2021/07/07 06:47:51;;;;;;;7.22;4.68;;;;;;;;;;5098631;28;20041;-69
2021/07/07 06:50:18;;;;;;;7.97;4.97;;;;;;;;;;5108617;28;20031;-68
2021/07/07 06:52:45;;;;;;;8.38;5.22;;;;;;;;;;5108254;28;20031;-68
2021/07/07 06:55:12;;;;;;;9.20;5.47;;;;;;;;;;5108506;28;20020;-68
2021/07/07 06:57:39;;;;;;;8.18;5.15;;;;;;;;;;5105647;28;20024;-68
2021/07/07 07:00:13;;;;;;;10.43;5.22;;;;;;;;;;5108857;28;20023;-68
2021/07/07 07:02:39;;;;;;;7.45;5.40;;;;;;;;;;5109093;28;20018;-68
2021/07/07 07:05:07;;;;;;;7.93;5.40;;;;;;;;;;5108816;28;20710;-68
2021/07/07 07:07:33;;;;;;;7.60;4.85;;;;;;;;;;5107472;28;20055;-69
2021/07/07 07:10:00;;;;;;;8.73;5.78;;;;;;;;;;5107471;28;20496;-68
2021/07/07 07:12:29;;;;;;;6.90;4.45;;;;;;;;;;5108371;28;20028;-67
2021/07/07 07:14:56;;;;;;;9.77;5.18;;;;;;;;;;5108475;28;20024;-66
2021/07/07 07:17:23;;;;;;;8.25;4.70;;;;;;;;;;5108135;28;20023;-67
2021/07/07 07:19:49;;;;;;;7.55;4.88;;;;;;;;;;5095520;28;20028;-67
2021/07/07 07:22:16;;;;;;;9.80;5.00;;;;;;;;;;5087776;28;20039;-67
2021/07/07 07:24:43;;;;;;;8.90;5.55;;;;;;;;;;5113294;28;20028;-67
2021/07/07 07:27:09;;;;;;;7.40;4.78;;;;;;;;;;5089806;28;20047;-68
2021/07/07 07:29:37;;;;;;;11.27;5.05;;;;;;;;;;5092877;28;20056;-67
2021/07/07 07:32:03;;;;;;;8.18;5.30;;;;;;;;;;5094104;28;20066;-67
2021/07/07 07:34:29;;;;;;;11.55;5.25;;;;;;;;;;5094470;28;20032;-68
2021/07/07 07:37:01;;;;;;;11.25;5.60;;;;;;;;;;5088317;28;20069;-66
2021/07/07 07:39:28;;;;;;;7.68;5.05;;;;;;;;;;5093014;28;20020;-67
2021/07/07 07:41:54;;;;;;;6.85;4.35;;;;;;;;;;5093081;28;20055;-67
2021/07/07 07:44:20;;;;;;;7.05;4.72;;;;;;;;;;5094111;28;20097;-68
2021/07/07 07:46:47;;;;;;;8.40;4.80;;;;;;;;;;5091197;28;20533;-68
2021/07/07 07:49:14;;;;;;;6.35;4.18;;;;;;;;;;5093513;28;20032;-67
2021/07/07 07:51:40;;;;;;;8.52;4.30;;;;;;;;;;5094321;28;20016;-67
2021/07/07 07:54:06;;;;;;;8.48;4.32;;;;;;;;;;5094035;28;20028;-68
2021/07/07 07:56:33;;;;;;;7.53;5.07;;;;;;;;;;5092383;28;20077;-68
2021/07/07 07:58:59;;;;;;;7.07;4.10;;;;;;;;;;5094265;28;20031;-68
2021/07/07 08:01:25;;;;;;;7.15;4.40;;;;;;;;;;5093507;28;20446;-68
2021/07/07 08:03:52;;;;;;;8.25;4.95;;;;;;;;;;5089089;28;20030;-67
2021/07/07 08:06:19;;;;;;;8.75;5.40;;;;;;;;;;5091908;28;20020;-68
2021/07/07 08:08:45;;;;;;;11.88;6.03;;;;;;;;;;5092286;28;20038;-67
2021/07/07 08:11:11;;;;;;;7.45;4.10;;;;;;;;;;5093875;28;20020;-68
2021/07/07 08:13:38;;;;;;;9.35;4.95;;;;;;;;;;5093644;28;20099;-69
2021/07/07 08:16:05;;;;;;;7.00;4.05;;;;;;;;;;5093577;28;20051;-68
2021/07/07 08:18:31;;;;;;;7.10;4.30;;;;;;;;;;5092488;28;20085;-69
2021/07/07 08:20:57;;;;;;;6.20;3.97;;;;;;;;;;5092261;28;20031;-69
2021/07/07 08:23:25;;;;;;;6.22;4.18;;;;;;;;;;5091013;28;20117;-69
2021/07/07 08:25:52;;;;;;;5.88;4.15;;;;;;;;;;5090464;28;20484;-67
2021/07/07 08:28:18;;;;;;;7.85;3.90;;;;;;;;;;5091263;28;20042;-67
2021/07/07 08:30:45;;;;;;;6.07;3.78;;;;;;;;;;5090498;28;20043;-67
2021/07/07 08:33:12;;;;;;;7.00;4.28;;;;;;;;;;5090223;28;20541;-67
2021/07/07 08:35:38;;;;;;;6.45;3.85;;;;;;;;;;5090383;28;20020;-64
2021/07/07 08:38:04;;;;;;;6.85;4.20;;;;;;;;;;5091641;28;20028;-65
2021/07/07 08:40:31;;;;;;;7.32;4.10;;;;;;;;;;5091610;28;20020;-65
2021/07/07 08:42:57;;;;;;;6.28;4.40;;;;;;;;;;5090939;28;20034;-63
2021/07/07 08:45:23;;;;;;;7.18;4.15;;;;;;;;;;5093545;28;20380;-65
2021/07/07 08:47:50;;;;;;;7.25;4.38;;;;;;;;;;5088345;28;20467;-65
2021/07/07 08:50:18;;;;;;;5.43;3.65;;;;;;;;;;5093265;28;20016;-67
2021/07/07 08:52:44;;;;;;;6.65;3.97;;;;;;;;;;5090543;28;20169;-68
2021/07/07 08:55:11;;;;;;;7.07;4.65;;;;;;;;;;5092613;28;20028;-65
2021/07/07 08:57:44;;;;;;;5.75;3.25;;;;;;;;;;5092910;28;20024;-64
2021/07/07 09:00:12;;;;;;;5.10;3.42;;;;;;;;;;5093183;28;20020;-67
2021/07/07 09:02:58;;;;;;;5.90;3.72;;;;;;;;;;5093101;28;20024;-65
2021/07/07 09:05:24;;;;;;;6.20;3.83;;;;;;;;;;5096659;28;20020;-65
2021/07/07 09:07:51;;;;;;;5.95;3.60;;;;;;;;;;5091973;28;20044;-63
2021/07/07 09:10:19;;;;;;;5.55;3.38;;;;;;;;;;5091056;28;20345;-65
2021/07/07 09:12:45;;;;;;;6.82;3.22;;;;;;;;;;5092334;28;20555;-65
2021/07/07 09:15:13;;;;;;;5.82;3.88;;;;;;;;;;5092682;28;20095;-65
2021/07/07 09:17:43;;;;;;;6.13;3.55;;;;;;;;;;5091373;28;20106;-66
2021/07/07 09:20:26;;;;;;;5.57;3.58;;;;;;;;;;5092923;28;20051;-66
2021/07/07 09:23:12;;;;;;;5.88;3.42;;;;;;;;;;5042549;28;20110;-66
2021/07/07 09:25:45;;;;;;;7.15;3.40;;;;;;;;;;5043352;28;20076;-66
2021/07/07 09:28:25;;;;;;;4.45;2.90;;;;;;;;;;5054210;28;20043;-67
2021/07/07 09:30:53;;;;;;;6.68;3.17;;;;;;;;;;5049347;28;20647;-69
2021/07/07 09:33:21;;;;;;;3.90;2.80;;;;;;;;;;5054200;28;20059;-70
2021/07/07 09:35:48;;;;;;;7.30;2.88;;;;;;;;;;5058098;28;20017;-70
2021/07/07 09:38:17;;;;;;;6.28;3.38;;;;;;;;;;5063029;28;20036;-71
2021/07/07 09:40:43;;;;;;;4.80;3.10;;;;;;;;;;5059865;28;20574;-71
2021/07/07 09:43:10;;;;;;;7.00;3.60;;;;;;;;;;5057565;28;20119;-71
2021/07/07 09:45:42;;;;;;;5.00;3.00;;;;;;;;;;5057054;28;20110;-71
2021/07/07 09:48:12;;;;;;;4.37;2.60;;;;;;;;;;5058709;28;20032;-71
2021/07/07 09:50:40;;;;;;;4.15;2.70;;;;;;;;;;5062876;28;20021;-70
2021/07/07 09:53:08;;;;;;;4.43;2.70;;;;;;;;;;5060025;28;20051;-72
2021/07/07 09:55:34;;;;;;;4.53;2.95;;;;;;;;;;5060813;28;20108;-70
2021/07/07 09:58:00;;;;;;;6.78;3.30;;;;;;;;;;5060007;28;20027;-71
2021/07/07 10:00:27;;;;;;;3.90;2.58;;;;;;;;;;5085564;28;20020;-70
2021/07/07 10:02:54;;;;;;;4.93;2.85;;;;;;;;;;5090832;28;20106;-70
2021/07/07 10:05:20;;;;;;;4.88;2.72;;;;;;;;;;5091150;28;20089;-70
2021/07/07 10:07:47;;;;;;;4.72;2.90;;;;;;;;;;5088460;28;20459;-72
2021/07/07 10:10:14;;;;;;;4.95;2.60;;;;;;;;;;5092164;28;20024;-71
2021/07/07 10:12:44;;;;;;;5.10;2.90;;;;;;;;;;5093769;28;20024;-69
2021/07/07 10:15:11;;;;;;;5.72;2.88;;;;;;;;;;5090648;28;20035;-69
2021/07/07 10:17:39;;;;;;;4.28;2.65;;;;;;;;;;5091214;28;20387;-71
2021/07/07 10:20:06;;;;;;;6.80;3.67;;;;;;;;;;5091386;28;20028;-70
2021/07/07 10:22:33;;;;;;;4.68;2.53;;;;;;;;;;5089383;28;20087;-70
2021/07/07 10:24:59;;;;;;;4.88;2.40;;;;;;;;;;5088349;28;20031;-70
2021/07/07 10:27:26;;;;;;;4.30;2.70;;;;;;;;;;5089605;28;20028;-70
2021/07/07 10:29:52;;;;;;;4.65;2.30;;;;;;;;;;5090089;28;20058;-70
2021/07/07 10:32:18;;;;;;;5.00;2.53;;;;;;;;;;5089149;28;20032;-70
2021/07/07 10:34:47;;;;;;;4.53;2.80;;;;;;;;;;5090429;28;20024;-71
2021/07/07 10:37:14;;;;;;;4.55;2.53;;;;;;;;;;5090998;28;20384;-71
2021/07/07 10:39:40;;;;;;;4.47;2.70;;;;;;;;;;5092187;28;20012;-70
2021/07/07 10:42:08;;;;;;;4.72;2.47;;;;;;;;;;5091581;28;20031;-70
2021/07/07 10:44:40;;;;;;;5.03;2.75;;;;;;;;;;5088066;28;20287;-70
2021/07/07 10:47:11;;;;;;;4.82;2.83;;;;;;;;;;5109548;28;20065;-70
2021/07/07 10:49:37;;;;;;;7.30;3.17;;;;;;;;;;5111125;28;20024;-70
2021/07/07 10:52:04;;;;;;;6.45;2.95;;;;;;;;;;5112286;28;20377;-70
2021/07/07 10:54:34;;;;;;;3.72;2.40;;;;;;;;;;5113269;28;20386;-70
2021/07/07 10:57:03;;;;;;;5.60;2.65;;;;;;;;;;5115815;28;20030;-71
2021/07/07 10:59:33;;;;;;;7.13;2.78;;;;;;;;;;5116238;28;20416;-70
2021/07/07 11:02:09;;;;;;;5.15;2.53;;;;;;;;;;5116252;28;20091;-71
2021/07/07 11:04:51;;;;;;;5.22;2.63;;;;;;;;;;5115700;28;20030;-72
2021/07/07 11:07:27;;;;;;;3.63;2.40;;;;;;;;;;5114502;28;20099;-71
2021/07/07 11:09:54;;;;;;;4.78;2.88;;;;;;;;;;5115289;28;20497;-71
2021/07/07 11:12:26;;;;;;;3.45;2.20;;;;;;;;;;5115877;28;20507;-70
2021/07/07 11:15:02;;;;;;;4.57;2.53;;;;;;;;;;5114418;28;20047;-71
2021/07/07 11:17:35;;;;;;;2.90;2.03;;;;;;;;;;5114547;28;20508;-70
2021/07/07 11:20:06;;;;;;;3.22;2.45;;;;;;;;;;5115757;28;20115;-71
2021/07/07 11:22:32;;;;;;;3.50;2.40;;;;;;;;;;5113956;28;20020;-70
2021/07/07 11:25:03;;;;;;;5.85;2.65;;;;;;;;;;5113041;28;20023;-70
2021/07/07 11:27:29;;;;;;;3.80;2.38;;;;;;;;;;5113634;28;20502;-70
2021/07/07 11:29:55;;;;;;;3.63;2.17;;;;;;;;;;5113926;28;20376;-70
2021/07/07 11:32:26;;;;;;;4.18;2.63;;;;;;;;;;5113010;28;20030;-70
2021/07/07 11:34:54;;;;;;;6.50;2.70;;;;;;;;;;5113634;28;20026;-70
2021/07/07 11:37:21;;;;;;;6.53;2.35;;;;;;;;;;5113452;28;20084;-71
2021/07/07 11:40:00;;;;;;;3.28;2.30;;;;;;;;;;5115094;28;20011;-70
2021/07/07 11:42:26;;;;;;;5.00;2.40;;;;;;;;;;5115043;28;20020;-71
2021/07/07 11:44:52;;;;;;;3.22;2.17;;;;;;;;;;5112564;28;20509;-71
2021/07/07 11:47:31;;;;;;;3.17;1.90;;;;;;;;;;5113616;28;20031;-71
2021/07/07 11:50:05;;;;;;;4.00;2.28;;;;;;;;;;5112670;28;20433;-71
2021/07/07 11:52:31;;;;;;;3.90;2.20;;;;;;;;;;5107131;28;20016;-70
2021/07/07 11:54:59;;;;;;;3.40;2.28;;;;;;;;;;5113571;28;20027;-70
2021/07/07 11:57:25;;;;;;;8.32;3.10;;;;;;;;;;5113725;28;20019;-70
2021/07/07 11:59:52;;;;;;;5.18;2.50;;;;;;;;;;5114629;28;20023;-70
2021/07/07 12:02:19;;;;;;;5.22;2.85;;;;;;;;;;5114889;28;20387;-70
2021/07/07 12:04:46;;;;;;;6.30;2.78;;;;;;;;;;5114631;28;20023;-69
2021/07/07 12:07:12;;;;;;;3.85;2.38;;;;;;;;;;5114251;28;20092;-70
2021/07/07 12:09:39;;;;;;;3.50;2.15;;;;;;;;;;5114932;28;20019;-71
2021/07/07 12:12:09;;;;;;;4.32;2.30;;;;;;;;;;5114807;28;20034;-69
2021/07/07 12:14:39;;;;;;;5.45;3.22;;;;;;;;;;5114428;28;20119;-71
2021/07/07 12:17:06;;;;;;;3.22;2.22;;;;;;;;;;5114786;28;20019;-71
2021/07/07 12:19:33;;;;;;;6.68;2.13;;;;;;;;;;5113701;28;20024;-71
2021/07/07 12:22:00;;;;;;;4.30;2.30;;;;;;;;;;5114278;28;20119;-70
2021/07/07 12:24:29;;;;;;;6.57;2.40;;;;;;;;;;5113278;28;20047;-71
2021/07/07 12:27:00;;;;;;;5.45;2.22;;;;;;;;;;5113734;28;20046;-70
2021/07/07 12:29:28;;;;;;;3.08;1.75;;;;;;;;;;5112928;28;20027;-69
2021/07/07 12:31:58;;;;;;;4.28;2.05;;;;;;;;;;5112267;28;20081;-70
2021/07/07 12:34:26;;;;;;;6.85;2.13;;;;;;;;;;5113465;28;20031;-69
2021/07/07 12:36:53;;;;;;;3.55;2.17;;;;;;;;;;5114461;28;20103;-71
2021/07/07 12:39:21;;;;;;;4.10;2.00;;;;;;;;;;5114559;28;20023;-69
2021/07/07 12:41:55;;;;;;;5.97;2.28;;;;;;;;;;5113102;28;20028;-70
2021/07/07 12:44:40;;;;;;;4.30;2.42;;;;;;;;;;5113829;28;20020;-70
2021/07/07 12:47:09;;;;;;;7.95;2.40;;;;;;;;;;5112441;28;20034;-72
2021/07/07 12:49:37;;;;;;;4.60;2.15;;;;;;;;;;5113470;28;20107;-70
2021/07/07 12:52:16;;;;;;;4.93;2.78;;;;;;;;;;5114129;28;20022;-70
2021/07/07 12:54:42;;;;;;;4.68;2.25;;;;;;;;;;5114037;28;20030;-70
2021/07/07 12:57:08;;;;;;;3.13;2.00;;;;;;;;;;5113648;28;20088;-71
2021/07/07 12:59:35;;;;;;;4.50;2.25;;;;;;;;;;5113951;28;20039;-69
2021/07/07 13:02:05;;;;;;;4.05;2.35;;;;;;;;;;5113528;28;20635;-70
2021/07/07 13:04:32;;;;;;;3.78;2.08;;;;;;;;;;5113899;28;20023;-70
2021/07/07 13:07:21;;;;;;;2.63;1.90;;;;;;;;;;5113394;28;20403;-69
2021/07/07 13:09:54;;;;;;;4.10;1.83;;;;;;;;;;5111579;28;20479;-70
2021/07/07 13:12:26;;;;;;;3.10;2.00;;;;;;;;;;5113578;28;20020;-69
2021/07/07 13:14:56;;;;;;;2.65;2.00;;;;;;;;;;5113487;28;20387;-71
2021/07/07 13:17:23;;;;;;;3.40;2.40;;;;;;;;;;5109537;28;20487;-71
2021/07/07 13:19:57;;;;;;;3.70;2.05;;;;;;;;;;5110573;28;20032;-70
2021/07/07 13:22:24;;;;;;;3.20;2.10;;;;;;;;;;5112414;28;20027;-71
2021/07/07 13:24:50;;;;;;;2.00;1.58;;;;;;;;;;5110569;28;20028;-71
2021/07/07 13:27:20;;;;;;;2.83;2.10;;;;;;;;;;5112086;28;20502;-71
2021/07/07 13:29:47;;;;;;;5.55;1.92;;;;;;;;;;5112097;28;20073;-71
2021/07/07 13:32:16;;;;;;;2.60;1.70;;;;;;;;;;5112823;28;20379;-70
2021/07/07 13:34:45;;;;;;;2.95;1.98;;;;;;;;;;5112073;28;20429;-70
2021/07/07 13:37:13;;;;;;;3.88;2.30;;;;;;;;;;5112859;28;20081;-71
2021/07/07 13:39:40;;;;;;;3.65;2.20;;;;;;;;;;5113323;28;20020;-71
2021/07/07 13:42:06;;;;;;;4.00;2.33;;;;;;;;;;5113369;28;20103;-71
2021/07/07 13:44:33;;;;;;;4.00;2.17;;;;;;;;;;5111366;28;20019;-72
2021/07/07 13:46:59;;;;;;;4.05;2.33;;;;;;;;;;5112919;28;20052;-72
2021/07/07 13:49:25;;;;;;;2.50;1.88;;;;;;;;;;5112977;28;20068;-73
2021/07/07 13:51:51;;;;;;;3.80;1.90;;;;;;;;;;5112598;28;20440;-73
2021/07/07 13:54:17;;;;;;;2.38;1.90;;;;;;;;;;5113004;28;20020;-73
2021/07/07 13:56:44;;;;;;;2.63;1.90;;;;;;;;;;5112831;28;20019;-72
2021/07/07 13:59:10;;;;;;;2.60;1.90;;;;;;;;;;5112799;28;20103;-71
2021/07/07 14:01:37;;;;;;;5.43;2.30;;;;;;;;;;5112601;28;20080;-72
2021/07/07 14:04:04;;;;;;;2.63;1.73;;;;;;;;;;5113103;28;20012;-72
2021/07/07 14:06:31;;;;;;;4.00;2.00;;;;;;;;;;5112351;28;20076;-72
2021/07/07 14:08:58;;;;;;;3.45;2.05;;;;;;;;;;5112866;28;20035;-72
2021/07/07 14:11:24;;;;;;;2.97;1.77;;;;;;;;;;5112981;28;20026;-72
2021/07/07 14:13:50;;;;;;;4.15;2.00;;;;;;;;;;5111181;28;20034;-74
2021/07/07 14:16:16;;;;;;;3.05;2.00;;;;;;;;;;5112742;28;20027;-73
2021/07/07 14:18:42;;;;;;;2.97;2.13;;;;;;;;;;5112863;28;20058;-72
2021/07/07 14:21:09;;;;;;;4.57;2.00;;;;;;;;;;5112529;28;20016;-73
2021/07/07 14:23:35;;;;;;;3.83;1.83;;;;;;;;;;5111462;28;20034;-73
2021/07/07 14:26:01;;;;;;;2.28;1.73;;;;;;;;;;5112816;28;20030;-72
2021/07/07 14:28:27;;;;;;;4.80;2.35;;;;;;;;;;5112799;28;20066;-72
2021/07/07 14:30:54;;;;;;;2.42;1.58;;;;;;;;;;5114959;28;20399;-73
2021/07/07 14:33:20;;;;;;;7.15;1.80;;;;;;;;;;5096239;28;20097;-73
2021/07/07 14:35:46;;;;;;;2.30;1.70;;;;;;;;;;5096334;28;20052;-73
2021/07/07 14:38:12;;;;;;;3.40;1.92;;;;;;;;;;5096383;28;20024;-73
2021/07/07 14:40:39;;;;;;;2.67;1.80;;;;;;;;;;5094736;28;20024;-73
2021/07/07 14:43:05;;;;;;;2.83;1.80;;;;;;;;;;5096515;28;20031;-73
2021/07/07 14:45:31;;;;;;;2.38;1.73;;;;;;;;;;5096067;28;20036;-74
2021/07/07 14:47:57;;;;;;;5.35;1.60;;;;;;;;;;5094359;28;20047;-73
2021/07/07 14:50:24;;;;;;;4.00;1.92;;;;;;;;;;5094947;28;20161;-73
2021/07/07 14:52:51;;;;;;;3.05;1.92;;;;;;;;;;5094825;28;20361;-72
2021/07/07 14:55:17;;;;;;;3.83;1.85;;;;;;;;;;5095533;28;20093;-74
2021/07/07 14:57:44;;;;;;;5.03;1.95;;;;;;;;;;5094634;28;20024;-72
2021/07/07 15:00:10;;;;;;;2.60;1.55;;;;;;;;;;5095975;28;20016;-72
2021/07/07 15:02:37;;;;;;;3.50;1.95;;;;;;;;;;5095726;28;20035;-72
2021/07/07 15:05:03;;;;;;;3.63;1.92;;;;;;;;;;5095736;28;20048;-73
2021/07/07 15:07:30;;;;;;;5.70;2.75;;;;;;;;;;5095427;28;20089;-72
2021/07/07 15:09:56;;;;;;;4.25;1.95;;;;;;;;;;5095505;28;20065;-73
2021/07/07 15:12:23;;;;;;;4.65;2.35;;;;;;;;;;5094350;28;20031;-71
2021/07/07 15:14:49;;;;;;;3.28;2.20;;;;;;;;;;5095693;28;20028;-72
2021/07/07 15:17:15;;;;;;;3.80;2.30;;;;;;;;;;5095163;28;20514;-73
2021/07/07 15:19:42;;;;;;;4.55;2.65;;;;;;;;;;5095539;28;20039;-73
2021/07/07 15:22:09;;;;;;;3.08;2.10;;;;;;;;;;5094461;28;20111;-72